sensor_id;sensor_type;location;lat;lon;timestamp;pressure;altitude;pressure_sealevel;temperature;humidity
53480;BME280;56133;51.012;-1.648;2022-07-23T00:01:16;100983.34;;;14.39;100.00
53480;BME280;56133;51.012;-1.648;2022-07-23T00:03:41;100987.06;;;14.38;100.00
53480;BME280;56133;51.012;-1.648;2022-07-23T00:06:07;100989.78;;;14.29;100.00
53480;BME280;56133;51.012;-1.648;2022-07-23T00:08:32;100986.09;;;14.30;100.00
53480;BME280;56133;51.012;-1.648;2022-07-23T00:10:58;100988.41;;;14.15;100.00
53480;BME280;56133;51.012;-1.648;2022-07-23T00:13:23;100984.56;;;14.17;100.00
53480;BME280;56133;51.012;-1.648;2022-07-23T00:15:49;100985.72;;;14.15;100.00
53480;BME280;56133;51.012;-1.648;2022-07-23T00:18:14;100984.84;;;14.14;100.00
53480;BME280;56133;51.012;-1.648;2022-07-23T00:20:39;100985.47;;;13.98;100.00
53480;BME280;56133;51.012;-1.648;2022-07-23T00:23:05;100979.19;;;13.98;100.00
53480;BME280;56133;51.012;-1.648;2022-07-23T00:25:30;100972.94;;;13.87;100.00
53480;BME280;56133;51.012;-1.648;2022-07-23T00:27:57;100976.63;;;13.96;100.00
53480;BME280;56133;51.012;-1.648;2022-07-23T00:30:23;100981.31;;;13.94;100.00
53480;BME280;56133;51.012;-1.648;2022-07-23T00:32:56;100980.34;;;13.95;100.00
53480;BME280;56133;51.012;-1.648;2022-07-23T00:35:23;100982.06;;;13.86;100.00
53480;BME280;56133;51.012;-1.648;2022-07-23T00:37:49;100983.16;;;13.84;100.00
53480;BME280;56133;51.012;-1.648;2022-07-23T00:40:15;100974.50;;;13.70;100.00
53480;BME280;56133;51.012;-1.648;2022-07-23T00:42:41;100978.09;;;13.71;100.00
53480;BME280;56133;51.012;-1.648;2022-07-23T00:45:07;100975.81;;;13.66;100.00
53480;BME280;56133;51.012;-1.648;2022-07-23T00:47:33;100979.19;;;13.68;100.00
53480;BME280;56133;51.012;-1.648;2022-07-23T00:49:59;100987.72;;;13.73;100.00
53480;BME280;56133;51.012;-1.648;2022-07-23T00:52:25;100988.28;;;13.67;100.00
53480;BME280;56133;51.012;-1.648;2022-07-23T00:54:51;100990.16;;;13.57;100.00
53480;BME280;56133;51.012;-1.648;2022-07-23T00:57:17;100989.44;;;13.55;100.00
53480;BME280;56133;51.012;-1.648;2022-07-23T00:59:43;100989.88;;;13.50;100.00
53480;BME280;56133;51.012;-1.648;2022-07-23T01:02:09;100986.88;;;13.53;100.00
53480;BME280;56133;51.012;-1.648;2022-07-23T01:04:34;100989.88;;;13.60;100.00
53480;BME280;56133;51.012;-1.648;2022-07-23T01:07:00;100987.59;;;13.55;100.00
53480;BME280;56133;51.012;-1.648;2022-07-23T01:09:26;100985.31;;;13.50;100.00
53480;BME280;56133;51.012;-1.648;2022-07-23T01:11:54;100976.81;;;13.45;100.00
53480;BME280;56133;51.012;-1.648;2022-07-23T01:14:20;100981.22;;;13.46;100.00
53480;BME280;56133;51.012;-1.648;2022-07-23T01:16:47;100972.06;;;13.38;100.00
53480;BME280;56133;51.012;-1.648;2022-07-23T01:19:13;100972.19;;;13.36;100.00
53480;BME280;56133;51.012;-1.648;2022-07-23T01:21:44;100973.50;;;13.32;100.00
53480;BME280;56133;51.012;-1.648;2022-07-23T01:24:12;100970.47;;;13.25;100.00
53480;BME280;56133;51.012;-1.648;2022-07-23T01:26:40;100977.03;;;13.32;100.00
53480;BME280;56133;51.012;-1.648;2022-07-23T01:29:05;100963.81;;;13.19;100.00
53480;BME280;56133;51.012;-1.648;2022-07-23T01:31:31;100961.38;;;13.16;100.00
53480;BME280;56133;51.012;-1.648;2022-07-23T01:33:57;100969.06;;;13.21;100.00
53480;BME280;56133;51.012;-1.648;2022-07-23T01:36:23;100968.50;;;13.27;100.00
53480;BME280;56133;51.012;-1.648;2022-07-23T01:38:48;100966.94;;;13.25;100.00
53480;BME280;56133;51.012;-1.648;2022-07-23T01:41:14;100959.13;;;13.21;100.00
53480;BME280;56133;51.012;-1.648;2022-07-23T01:43:39;100964.66;;;13.20;100.00
53480;BME280;56133;51.012;-1.648;2022-07-23T01:46:05;100962.38;;;13.15;100.00
53480;BME280;56133;51.012;-1.648;2022-07-23T01:48:31;100954.28;;;13.15;100.00
53480;BME280;56133;51.012;-1.648;2022-07-23T01:50:56;100957.97;;;13.04;100.00
53480;BME280;56133;51.012;-1.648;2022-07-23T01:53:22;100967.78;;;13.05;100.00
53480;BME280;56133;51.012;-1.648;2022-07-23T01:55:47;100958.66;;;13.06;100.00
53480;BME280;56133;51.012;-1.648;2022-07-23T01:58:13;100961.34;;;13.06;100.00
53480;BME280;56133;51.012;-1.648;2022-07-23T02:00:38;100955.97;;;13.06;100.00
53480;BME280;56133;51.012;-1.648;2022-07-23T02:03:04;100956.25;;;13.03;100.00
53480;BME280;56133;51.012;-1.648;2022-07-23T02:05:29;100951.97;;;13.01;100.00
53480;BME280;56133;51.012;-1.648;2022-07-23T02:07:55;100954.38;;;12.94;100.00
53480;BME280;56133;51.012;-1.648;2022-07-23T02:10:21;100956.25;;;12.94;100.00
53480;BME280;56133;51.012;-1.648;2022-07-23T02:12:47;100953.09;;;12.88;100.00
53480;BME280;56133;51.012;-1.648;2022-07-23T02:15:12;100952.09;;;12.89;100.00
53480;BME280;56133;51.012;-1.648;2022-07-23T02:17:38;100959.88;;;12.83;100.00
53480;BME280;56133;51.012;-1.648;2022-07-23T02:20:04;100956.03;;;12.75;100.00
53480;BME280;56133;51.012;-1.648;2022-07-23T02:22:30;100964.38;;;12.72;100.00
53480;BME280;56133;51.012;-1.648;2022-07-23T02:24:56;100958.44;;;12.79;100.00
53480;BME280;56133;51.012;-1.648;2022-07-23T02:27:21;100967.53;;;12.78;100.00
53480;BME280;56133;51.012;-1.648;2022-07-23T02:29:48;100957.44;;;12.70;100.00
53480;BME280;56133;51.012;-1.648;2022-07-23T02:32:14;100957.59;;;12.68;100.00
53480;BME280;56133;51.012;-1.648;2022-07-23T02:34:39;100963.38;;;12.64;100.00
53480;BME280;56133;51.012;-1.648;2022-07-23T02:37:04;100962.38;;;12.65;100.00
53480;BME280;56133;51.012;-1.648;2022-07-23T02:39:30;100959.56;;;12.66;100.00
53480;BME280;56133;51.012;-1.648;2022-07-23T02:41:55;100967.06;;;12.63;100.00
53480;BME280;56133;51.012;-1.648;2022-07-23T02:44:21;100973.44;;;12.62;100.00
53480;BME280;56133;51.012;-1.648;2022-07-23T02:46:46;100970.56;;;12.53;100.00
53480;BME280;56133;51.012;-1.648;2022-07-23T02:49:12;100969.72;;;12.53;100.00
53480;BME280;56133;51.012;-1.648;2022-07-23T02:51:37;100970.44;;;12.55;100.00
53480;BME280;56133;51.012;-1.648;2022-07-23T02:54:02;100975.13;;;12.53;100.00
53480;BME280;56133;51.012;-1.648;2022-07-23T02:56:28;100977.19;;;12.49;100.00
53480;BME280;56133;51.012;-1.648;2022-07-23T02:58:53;100983.72;;;12.47;100.00
53480;BME280;56133;51.012;-1.648;2022-07-23T03:01:19;100985.78;;;12.33;100.00
53480;BME280;56133;51.012;-1.648;2022-07-23T03:03:44;100985.13;;;12.41;100.00
53480;BME280;56133;51.012;-1.648;2022-07-23T03:06:10;100976.31;;;12.39;100.00
53480;BME280;56133;51.012;-1.648;2022-07-23T03:08:35;100979.16;;;12.37;100.00
53480;BME280;56133;51.012;-1.648;2022-07-23T03:11:01;100977.03;;;12.41;100.00
53480;BME280;56133;51.012;-1.648;2022-07-23T03:13:26;100978.69;;;12.32;100.00
53480;BME280;56133;51.012;-1.648;2022-07-23T03:15:51;100967.03;;;12.32;100.00
53480;BME280;56133;51.012;-1.648;2022-07-23T03:18:17;100976.13;;;12.30;100.00
53480;BME280;56133;51.012;-1.648;2022-07-23T03:20:42;100972.13;;;12.25;100.00
53480;BME280;56133;51.012;-1.648;2022-07-23T03:23:08;100969.38;;;12.15;100.00
53480;BME280;56133;51.012;-1.648;2022-07-23T03:25:33;100975.63;;;12.16;100.00
53480;BME280;56133;51.012;-1.648;2022-07-23T03:27:59;100974.03;;;12.13;100.00
53480;BME280;56133;51.012;-1.648;2022-07-23T03:30:24;100977.53;;;12.04;100.00
53480;BME280;56133;51.012;-1.648;2022-07-23T03:32:50;100972.59;;;12.09;100.00
53480;BME280;56133;51.012;-1.648;2022-07-23T03:35:15;100977.06;;;11.98;100.00
53480;BME280;56133;51.012;-1.648;2022-07-23T03:37:41;100974.16;;;12.11;100.00
53480;BME280;56133;51.012;-1.648;2022-07-23T03:40:06;100977.28;;;12.07;100.00
53480;BME280;56133;51.012;-1.648;2022-07-23T03:42:32;100976.69;;;12.03;100.00
53480;BME280;56133;51.012;-1.648;2022-07-23T03:44:57;100974.97;;;12.02;100.00
53480;BME280;56133;51.012;-1.648;2022-07-23T03:47:23;100984.25;;;11.98;100.00
53480;BME280;56133;51.012;-1.648;2022-07-23T03:49:49;100979.75;;;11.98;100.00
53480;BME280;56133;51.012;-1.648;2022-07-23T03:52:14;100981.00;;;11.94;100.00
53480;BME280;56133;51.012;-1.648;2022-07-23T03:54:40;100984.06;;;11.90;100.00
53480;BME280;56133;51.012;-1.648;2022-07-23T03:57:05;100981.50;;;11.88;100.00
53480;BME280;56133;51.012;-1.648;2022-07-23T03:59:31;100976.38;;;11.85;100.00
53480;BME280;56133;51.012;-1.648;2022-07-23T04:01:56;100978.34;;;11.83;100.00
53480;BME280;56133;51.012;-1.648;2022-07-23T04:04:21;100972.38;;;11.79;100.00
53480;BME280;56133;51.012;-1.648;2022-07-23T04:06:47;100966.50;;;11.74;100.00
53480;BME280;56133;51.012;-1.648;2022-07-23T04:09:12;100970.19;;;11.73;100.00
53480;BME280;56133;51.012;-1.648;2022-07-23T04:11:38;100963.38;;;11.69;100.00
53480;BME280;56133;51.012;-1.648;2022-07-23T04:14:04;100965.69;;;11.62;100.00
53480;BME280;56133;51.012;-1.648;2022-07-23T04:16:29;100976.28;;;11.75;100.00
53480;BME280;56133;51.012;-1.648;2022-07-23T04:18:56;100984.50;;;11.74;100.00
53480;BME280;56133;51.012;-1.648;2022-07-23T04:21:23;100975.81;;;11.70;100.00
53480;BME280;56133;51.012;-1.648;2022-07-23T04:23:48;100977.81;;;11.68;100.00
53480;BME280;56133;51.012;-1.648;2022-07-23T04:26:14;100978.66;;;11.68;100.00
53480;BME280;56133;51.012;-1.648;2022-07-23T04:28:39;100982.22;;;11.69;100.00
53480;BME280;56133;51.012;-1.648;2022-07-23T04:31:05;100985.59;;;11.71;100.00
53480;BME280;56133;51.012;-1.648;2022-07-23T04:33:30;100986.88;;;11.67;100.00
53480;BME280;56133;51.012;-1.648;2022-07-23T04:35:56;100980.75;;;11.65;100.00
53480;BME280;56133;51.012;-1.648;2022-07-23T04:38:21;100978.91;;;11.65;100.00
53480;BME280;56133;51.012;-1.648;2022-07-23T04:40:47;100981.75;;;11.64;100.00
53480;BME280;56133;51.012;-1.648;2022-07-23T04:43:12;100970.88;;;11.54;100.00
53480;BME280;56133;51.012;-1.648;2022-07-23T04:45:37;100973.41;;;11.67;100.00
53480;BME280;56133;51.012;-1.648;2022-07-23T04:48:03;100985.16;;;11.66;100.00
53480;BME280;56133;51.012;-1.648;2022-07-23T04:50:29;100980.88;;;11.63;100.00
53480;BME280;56133;51.012;-1.648;2022-07-23T04:52:54;100977.72;;;11.58;100.00
53480;BME280;56133;51.012;-1.648;2022-07-23T04:55:20;100979.44;;;11.59;100.00
53480;BME280;56133;51.012;-1.648;2022-07-23T04:57:45;100976.47;;;11.62;100.00
53480;BME280;56133;51.012;-1.648;2022-07-23T05:00:11;100978.78;;;11.67;100.00
53480;BME280;56133;51.012;-1.648;2022-07-23T05:02:36;100980.50;;;11.68;100.00
53480;BME280;56133;51.012;-1.648;2022-07-23T05:05:02;100982.31;;;11.67;100.00
53480;BME280;56133;51.012;-1.648;2022-07-23T05:07:27;100981.50;;;11.67;100.00
53480;BME280;56133;51.012;-1.648;2022-07-23T05:09:53;100977.81;;;11.68;100.00
53480;BME280;56133;51.012;-1.648;2022-07-23T05:12:18;100973.13;;;11.70;100.00
53480;BME280;56133;51.012;-1.648;2022-07-23T05:14:44;100991.13;;;11.69;100.00
53480;BME280;56133;51.012;-1.648;2022-07-23T05:17:09;100998.09;;;11.72;100.00
53480;BME280;56133;51.012;-1.648;2022-07-23T05:19:35;100996.59;;;11.79;100.00
53480;BME280;56133;51.012;-1.648;2022-07-23T05:22:01;100996.59;;;11.79;100.00
53480;BME280;56133;51.012;-1.648;2022-07-23T05:24:26;100996.66;;;11.89;100.00
53480;BME280;56133;51.012;-1.648;2022-07-23T05:26:52;100995.16;;;11.96;100.00
53480;BME280;56133;51.012;-1.648;2022-07-23T05:29:18;101005.44;;;12.03;100.00
53480;BME280;56133;51.012;-1.648;2022-07-23T05:31:43;101000.38;;;12.09;100.00
53480;BME280;56133;51.012;-1.648;2022-07-23T05:34:09;100995.53;;;12.24;100.00
53480;BME280;56133;51.012;-1.648;2022-07-23T05:36:35;100992.69;;;12.26;100.00
53480;BME280;56133;51.012;-1.648;2022-07-23T05:39:00;100993.00;;;12.33;100.00
53480;BME280;56133;51.012;-1.648;2022-07-23T05:41:26;100993.00;;;12.33;100.00
53480;BME280;56133;51.012;-1.648;2022-07-23T05:43:51;100997.19;;;12.47;100.00
53480;BME280;56133;51.012;-1.648;2022-07-23T05:46:17;100994.41;;;12.58;100.00
53480;BME280;56133;51.012;-1.648;2022-07-23T05:48:42;100992.63;;;12.68;100.00
53480;BME280;56133;51.012;-1.648;2022-07-23T05:51:08;100993.91;;;12.74;100.00
53480;BME280;56133;51.012;-1.648;2022-07-23T05:53:34;100997.34;;;12.76;100.00
53480;BME280;56133;51.012;-1.648;2022-07-23T05:56:00;100995.97;;;12.92;100.00
53480;BME280;56133;51.012;-1.648;2022-07-23T05:58:26;101000.78;;;12.88;100.00
53480;BME280;56133;51.012;-1.648;2022-07-23T06:00:52;100996.97;;;12.90;100.00
53480;BME280;56133;51.012;-1.648;2022-07-23T06:03:17;100995.25;;;12.89;100.00
53480;BME280;56133;51.012;-1.648;2022-07-23T06:05:43;100997.44;;;13.05;100.00
53480;BME280;56133;51.012;-1.648;2022-07-23T06:08:08;100995.31;;;13.09;100.00
53480;BME280;56133;51.012;-1.648;2022-07-23T06:10:34;101000.72;;;13.19;100.00
53480;BME280;56133;51.012;-1.648;2022-07-23T06:12:59;101001.75;;;13.28;100.00
53480;BME280;56133;51.012;-1.648;2022-07-23T06:15:24;100995.34;;;13.29;100.00
53480;BME280;56133;51.012;-1.648;2022-07-23T06:17:50;100994.69;;;13.46;100.00
53480;BME280;56133;51.012;-1.648;2022-07-23T06:20:16;100991.44;;;13.62;100.00
53480;BME280;56133;51.012;-1.648;2022-07-23T06:22:41;100995.72;;;13.75;100.00
53480;BME280;56133;51.012;-1.648;2022-07-23T06:25:07;100986.91;;;13.83;100.00
53480;BME280;56133;51.012;-1.648;2022-07-23T06:27:33;100988.72;;;13.92;100.00
53480;BME280;56133;51.012;-1.648;2022-07-23T06:29:58;100992.41;;;14.01;100.00
53480;BME280;56133;51.012;-1.648;2022-07-23T06:32:24;100996.66;;;14.03;100.00
53480;BME280;56133;51.012;-1.648;2022-07-23T06:34:49;100997.34;;;14.15;100.00
53480;BME280;56133;51.012;-1.648;2022-07-23T06:37:15;100995.50;;;14.25;100.00
53480;BME280;56133;51.012;-1.648;2022-07-23T06:39:41;100999.75;;;14.28;100.00
53480;BME280;56133;51.012;-1.648;2022-07-23T06:42:07;100994.78;;;14.33;100.00
53480;BME280;56133;51.012;-1.648;2022-07-23T06:44:32;101001.88;;;14.34;100.00
53480;BME280;56133;51.012;-1.648;2022-07-23T06:46:58;101004.25;;;14.47;100.00
53480;BME280;56133;51.012;-1.648;2022-07-23T06:49:23;101006.03;;;14.66;100.00
53480;BME280;56133;51.012;-1.648;2022-07-23T06:51:49;101009.84;;;14.83;100.00
53480;BME280;56133;51.012;-1.648;2022-07-23T06:54:14;101014.91;;;14.96;100.00
53480;BME280;56133;51.012;-1.648;2022-07-23T06:56:40;101009.59;;;15.05;100.00
53480;BME280;56133;51.012;-1.648;2022-07-23T06:59:05;101007.53;;;15.16;100.00
53480;BME280;56133;51.012;-1.648;2022-07-23T07:01:31;101005.78;;;14.97;100.00
53480;BME280;56133;51.012;-1.648;2022-07-23T07:03:57;101008.59;;;15.06;100.00
53480;BME280;56133;51.012;-1.648;2022-07-23T07:06:22;101011.94;;;15.17;100.00
53480;BME280;56133;51.012;-1.648;2022-07-23T07:08:47;101007.16;;;15.29;100.00
53480;BME280;56133;51.012;-1.648;2022-07-23T07:11:13;101011.22;;;15.43;100.00
53480;BME280;56133;51.012;-1.648;2022-07-23T07:13:38;101007.41;;;15.54;100.00
53480;BME280;56133;51.012;-1.648;2022-07-23T07:16:04;101016.31;;;15.83;100.00
53480;BME280;56133;51.012;-1.648;2022-07-23T07:18:30;101013.31;;;16.04;100.00
53480;BME280;56133;51.012;-1.648;2022-07-23T07:20:56;101012.19;;;16.15;100.00
53480;BME280;56133;51.012;-1.648;2022-07-23T07:23:22;101016.38;;;16.27;100.00
53480;BME280;56133;51.012;-1.648;2022-07-23T07:25:48;101012.31;;;16.58;100.00
53480;BME280;56133;51.012;-1.648;2022-07-23T07:28:14;101010.16;;;16.96;100.00
53480;BME280;56133;51.012;-1.648;2022-07-23T07:30:39;101008.66;;;17.02;100.00
53480;BME280;56133;51.012;-1.648;2022-07-23T07:33:06;101010.44;;;17.27;100.00
53480;BME280;56133;51.012;-1.648;2022-07-23T07:35:31;101009.94;;;17.32;100.00
53480;BME280;56133;51.012;-1.648;2022-07-23T07:37:58;101021.69;;;17.41;100.00
53480;BME280;56133;51.012;-1.648;2022-07-23T07:40:24;101031.41;;;17.68;100.00
53480;BME280;56133;51.012;-1.648;2022-07-23T07:42:51;101024.63;;;17.89;100.00
53480;BME280;56133;51.012;-1.648;2022-07-23T07:45:20;101024.34;;;18.09;100.00
53480;BME280;56133;51.012;-1.648;2022-07-23T07:47:45;101026.50;;;17.97;100.00
53480;BME280;56133;51.012;-1.648;2022-07-23T07:50:10;101026.88;;;18.10;100.00
53480;BME280;56133;51.012;-1.648;2022-07-23T07:52:36;101026.84;;;18.43;100.00
53480;BME280;56133;51.012;-1.648;2022-07-23T07:55:06;101026.31;;;18.48;100.00
53480;BME280;56133;51.012;-1.648;2022-07-23T07:57:32;101021.91;;;18.39;100.00
53480;BME280;56133;51.012;-1.648;2022-07-23T07:59:58;101010.75;;;18.73;100.00
53480;BME280;56133;51.012;-1.648;2022-07-23T08:02:23;101018.69;;;19.00;100.00
53480;BME280;56133;51.012;-1.648;2022-07-23T08:04:49;101009.84;;;18.98;100.00
53480;BME280;56133;51.012;-1.648;2022-07-23T08:07:15;101007.25;;;19.13;100.00
53480;BME280;56133;51.012;-1.648;2022-07-23T08:09:40;101009.19;;;18.87;100.00
53480;BME280;56133;51.012;-1.648;2022-07-23T08:12:06;101002.91;;;19.26;100.00
53480;BME280;56133;51.012;-1.648;2022-07-23T08:14:32;101003.38;;;19.38;100.00
53480;BME280;56133;51.012;-1.648;2022-07-23T08:16:57;101014.94;;;19.64;100.00
53480;BME280;56133;51.012;-1.648;2022-07-23T08:19:22;101008.63;;;19.63;100.00
53480;BME280;56133;51.012;-1.648;2022-07-23T08:21:48;101018.16;;;19.67;100.00
53480;BME280;56133;51.012;-1.648;2022-07-23T08:24:13;101013.25;;;19.63;98.07
53480;BME280;56133;51.012;-1.648;2022-07-23T08:26:39;101011.16;;;19.65;100.00
53480;BME280;56133;51.012;-1.648;2022-07-23T08:29:05;101014.50;;;19.75;100.00
53480;BME280;56133;51.012;-1.648;2022-07-23T08:31:30;101013.50;;;19.53;100.00
53480;BME280;56133;51.012;-1.648;2022-07-23T08:33:58;101022.13;;;19.33;100.00
53480;BME280;56133;51.012;-1.648;2022-07-23T08:36:24;101011.56;;;19.62;100.00
53480;BME280;56133;51.012;-1.648;2022-07-23T08:38:53;101023.06;;;19.72;100.00
53480;BME280;56133;51.012;-1.648;2022-07-23T08:41:18;101022.56;;;19.68;92.60
53480;BME280;56133;51.012;-1.648;2022-07-23T08:43:44;101027.50;;;19.96;96.51
53480;BME280;56133;51.012;-1.648;2022-07-23T08:46:09;101020.50;;;20.17;93.85
53480;BME280;56133;51.012;-1.648;2022-07-23T08:48:36;101019.47;;;20.33;87.71
53480;BME280;56133;51.012;-1.648;2022-07-23T08:51:03;101020.91;;;20.29;91.31
53480;BME280;56133;51.012;-1.648;2022-07-23T08:53:30;101027.59;;;20.41;81.42
53480;BME280;56133;51.012;-1.648;2022-07-23T08:55:59;101015.78;;;20.79;90.85
53480;BME280;56133;51.012;-1.648;2022-07-23T08:58:29;101020.09;;;21.03;97.14
53480;BME280;56133;51.012;-1.648;2022-07-23T09:00:56;101021.31;;;21.16;90.37
53480;BME280;56133;51.012;-1.648;2022-07-23T09:03:24;101021.56;;;21.21;87.75
53480;BME280;56133;51.012;-1.648;2022-07-23T09:05:51;101027.09;;;21.43;86.06
53480;BME280;56133;51.012;-1.648;2022-07-23T09:08:20;101026.25;;;21.42;88.39
53480;BME280;56133;51.012;-1.648;2022-07-23T09:13:25;101028.69;;;21.74;85.44
53480;BME280;56133;51.012;-1.648;2022-07-23T09:15:52;101030.41;;;21.75;85.90
53480;BME280;56133;51.012;-1.648;2022-07-23T09:18:18;101029.28;;;21.69;79.90
53480;BME280;56133;51.012;-1.648;2022-07-23T09:20:44;101028.81;;;21.87;83.93
53480;BME280;56133;51.012;-1.648;2022-07-23T09:23:10;101028.25;;;21.92;77.49
53480;BME280;56133;51.012;-1.648;2022-07-23T09:25:35;101027.06;;;22.01;76.68
53480;BME280;56133;51.012;-1.648;2022-07-23T09:28:01;101033.72;;;22.42;79.87
53480;BME280;56133;51.012;-1.648;2022-07-23T09:30:31;101034.19;;;21.95;73.84
53480;BME280;56133;51.012;-1.648;2022-07-23T09:33:10;101028.19;;;21.85;80.65
53480;BME280;56133;51.012;-1.648;2022-07-23T09:35:53;101021.22;;;22.04;75.93
53480;BME280;56133;51.012;-1.648;2022-07-23T09:38:21;101017.59;;;22.04;77.01
53480;BME280;56133;51.012;-1.648;2022-07-23T09:41:08;101023.88;;;21.97;74.97
53480;BME280;56133;51.012;-1.648;2022-07-23T09:43:33;101018.53;;;21.89;76.96
53480;BME280;56133;51.012;-1.648;2022-07-23T09:46:22;101022.91;;;21.83;75.62
53480;BME280;56133;51.012;-1.648;2022-07-23T09:48:50;101018.00;;;22.51;79.50
53480;BME280;56133;51.012;-1.648;2022-07-23T09:51:17;101023.50;;;22.93;73.81
53480;BME280;56133;51.012;-1.648;2022-07-23T09:54:04;101015.53;;;22.98;64.84
53480;BME280;56133;51.012;-1.648;2022-07-23T09:56:30;101023.19;;;23.16;69.64
53480;BME280;56133;51.012;-1.648;2022-07-23T09:58:56;101033.78;;;22.84;71.56
53480;BME280;56133;51.012;-1.648;2022-07-23T10:01:38;101025.56;;;23.26;63.14
53480;BME280;56133;51.012;-1.648;2022-07-23T10:04:04;101025.84;;;23.51;62.67
53480;BME280;56133;51.012;-1.648;2022-07-23T10:06:30;101024.63;;;23.54;73.06
53480;BME280;56133;51.012;-1.648;2022-07-23T10:08:58;101012.47;;;23.97;67.93
53480;BME280;56133;51.012;-1.648;2022-07-23T10:11:26;101008.44;;;24.19;64.20
53480;BME280;56133;51.012;-1.648;2022-07-23T10:13:54;101006.53;;;24.33;63.25
53480;BME280;56133;51.012;-1.648;2022-07-23T10:16:25;101000.53;;;24.77;65.19
53480;BME280;56133;51.012;-1.648;2022-07-23T10:18:51;101001.09;;;25.06;62.66
53480;BME280;56133;51.012;-1.648;2022-07-23T10:26:53;100980.22;;;24.91;54.98
53480;BME280;56133;51.012;-1.648;2022-07-23T10:37:49;100983.84;;;25.24;64.76
53480;BME280;56133;51.012;-1.648;2022-07-23T10:40:21;100988.16;;;25.84;62.92
53480;BME280;56133;51.012;-1.648;2022-07-23T10:42:49;100986.25;;;26.35;52.45
53480;BME280;56133;51.012;-1.648;2022-07-23T10:45:32;100979.63;;;26.80;52.08
53480;BME280;56133;51.012;-1.648;2022-07-23T10:48:27;100983.41;;;27.16;59.50
53480;BME280;56133;51.012;-1.648;2022-07-23T10:51:13;100997.41;;;26.84;54.74
53480;BME280;56133;51.012;-1.648;2022-07-23T10:59:04;100981.19;;;27.25;48.33
53480;BME280;56133;51.012;-1.648;2022-07-23T11:01:38;100989.78;;;27.47;48.85
53480;BME280;56133;51.012;-1.648;2022-07-23T11:04:06;100985.97;;;28.14;57.34
53480;BME280;56133;51.012;-1.648;2022-07-23T11:09:40;100997.03;;;26.80;58.79
53480;BME280;56133;51.012;-1.648;2022-07-23T11:17:58;100981.97;;;27.14;51.83
53480;BME280;56133;51.012;-1.648;2022-07-23T11:20:23;100983.03;;;25.23;54.76
53480;BME280;56133;51.012;-1.648;2022-07-23T11:22:50;100986.44;;;25.19;58.66
53480;BME280;56133;51.012;-1.648;2022-07-23T11:27:48;100990.81;;;24.81;57.23
53480;BME280;56133;51.012;-1.648;2022-07-23T11:30:41;100981.81;;;25.12;58.46
53480;BME280;56133;51.012;-1.648;2022-07-23T11:35:37;100986.28;;;24.21;58.35
53480;BME280;56133;51.012;-1.648;2022-07-23T11:38:06;100990.84;;;24.74;63.97
53480;BME280;56133;51.012;-1.648;2022-07-23T11:40:35;100980.47;;;25.22;56.85
53480;BME280;56133;51.012;-1.648;2022-07-23T11:43:08;100993.63;;;25.58;54.12
53480;BME280;56133;51.012;-1.648;2022-07-23T11:45:42;100982.09;;;25.43;58.69
53480;BME280;56133;51.012;-1.648;2022-07-23T11:48:16;100983.72;;;26.08;60.02
53480;BME280;56133;51.012;-1.648;2022-07-23T11:50:41;100985.16;;;26.11;56.94
53480;BME280;56133;51.012;-1.648;2022-07-23T11:53:07;100975.84;;;26.56;58.67
53480;BME280;56133;51.012;-1.648;2022-07-23T11:55:33;100982.25;;;26.05;57.24
53480;BME280;56133;51.012;-1.648;2022-07-23T11:57:59;100979.75;;;25.01;54.26
53480;BME280;56133;51.012;-1.648;2022-07-23T12:00:28;100984.16;;;24.36;61.23
53480;BME280;56133;51.012;-1.648;2022-07-23T12:03:00;100982.47;;;24.35;64.92
53480;BME280;56133;51.012;-1.648;2022-07-23T12:05:30;100983.28;;;24.49;65.64
53480;BME280;56133;51.012;-1.648;2022-07-23T12:07:57;100990.09;;;24.00;64.79
53480;BME280;56133;51.012;-1.648;2022-07-23T12:10:38;100991.50;;;23.69;62.89
53480;BME280;56133;51.012;-1.648;2022-07-23T12:13:06;100989.13;;;23.32;60.59
53480;BME280;56133;51.012;-1.648;2022-07-23T12:15:38;100985.84;;;23.08;63.89
53480;BME280;56133;51.012;-1.648;2022-07-23T12:18:05;100977.59;;;23.01;68.32
53480;BME280;56133;51.012;-1.648;2022-07-23T12:20:35;100974.56;;;22.83;70.13
53480;BME280;56133;51.012;-1.648;2022-07-23T12:23:04;100972.84;;;22.75;66.52
53480;BME280;56133;51.012;-1.648;2022-07-23T12:25:32;100965.28;;;23.26;68.16
53480;BME280;56133;51.012;-1.648;2022-07-23T12:33:07;100957.63;;;24.69;62.27
53480;BME280;56133;51.012;-1.648;2022-07-23T12:35:44;100980.09;;;24.59;59.61
53480;BME280;56133;51.012;-1.648;2022-07-23T12:38:13;100972.50;;;24.41;61.75
53480;BME280;56133;51.012;-1.648;2022-07-23T12:40:48;100977.63;;;24.31;61.61
53480;BME280;56133;51.012;-1.648;2022-07-23T12:43:36;100977.34;;;24.59;63.90
53480;BME280;56133;51.012;-1.648;2022-07-23T12:48:38;100987.72;;;24.44;61.98
53480;BME280;56133;51.012;-1.648;2022-07-23T12:51:06;100983.44;;;24.68;60.05
53480;BME280;56133;51.012;-1.648;2022-07-23T12:56:05;100993.88;;;24.25;64.42
53480;BME280;56133;51.012;-1.648;2022-07-23T13:06:39;100992.75;;;22.97;66.43
53480;BME280;56133;51.012;-1.648;2022-07-23T13:09:06;100988.22;;;22.76;66.86
53480;BME280;56133;51.012;-1.648;2022-07-23T13:11:33;100995.09;;;22.58;73.88
53480;BME280;56133;51.012;-1.648;2022-07-23T13:13:59;101001.44;;;22.09;74.73
53480;BME280;56133;51.012;-1.648;2022-07-23T13:16:29;101002.63;;;22.50;77.63
53480;BME280;56133;51.012;-1.648;2022-07-23T13:18:55;100998.13;;;22.70;74.78
53480;BME280;56133;51.012;-1.648;2022-07-23T13:21:24;100996.63;;;23.16;66.28
53480;BME280;56133;51.012;-1.648;2022-07-23T13:23:50;100994.59;;;23.32;68.18
53480;BME280;56133;51.012;-1.648;2022-07-23T13:26:16;100988.22;;;22.76;70.76